KGCM

Claremore Regional Airport

Claremore, Oklahoma, USA
METAR KGCM 120135Z AUTO 19011G21KT 10SM CLR 11/00 A3003 RMK AO2 TSNO
Observed Flight Rules
Dec-12 @ 01:35 UTC (23 minutes ago) Visual Flight Rules
Wind Visibility Clouds
190° at 11 knots
 Gusting to 21 knots
10 miles
  • Clear skies
Temperatures Readings
Current 11°C / 52°F
Dewpoint 0°C / 32°F
Humidity 47%
Altimeter 30.03" Hg
Pressure 1017 hPa
Elevation 221
METAR KGCM 120135Z AUTO 19011G21KT 10SM CLR 11/00 A3003 RMK AO2 TSNO
Observed Flight Rules
Dec-12 @ 01:35 UTC
(23 minutes ago)
VFR
Wind Visibility
190° at 11 knots
 Gusting to 21 knots
10 miles
Clouds
  • Clear skies
Temperature Dewpoint
11°C / 52°F 0°C / 32°F
Humidity Altimeter Pressure
47% 30.03" Hg 1017 hPa